Manuel Castro

Chief Scout - Eibar
17 Feb 2028
Thursday
Process

Personality

Adaptability (11) Ambition (18) Controversy (4) Loyalty (6) Pressure (11) Professionalism (20) Sportsmanship (2) Temperament (15)

Profile

Coaching Style Democratic
License National B
Determination 9
Man Management 6
Motivating 10
Discipline 6
Job Satisfaction
100%
Fatigue
0%
Role Chief Scout
Wage 74.7K p/w
Contract 14.03.2028

Performance

Behaviour Good
Training Effectiveness
30%
Player Development
55%
Injury Prevention
20%
Tactical Implementation
20%

Recent Events

Contract negotiation started now
Attended a recruitment meeting now
Recommended a transfer target now
Attended a recruitment meeting now
Recommended a transfer target now
Contract negotiation started now
Assessed a player 7d ago
Contract negotiation started 7d ago

Currently Monitoring

145
Player Club Status Ability Confidence Watched Last Observed Latest Vote
Jofre Torrents Ajax Active 126 / 126 40% 7 15.02.2028 -
Rivaldo Grobler Free State Stars Active 104 / 115 40% 1 15.02.2028 -
Daniel Banjaqui Benfica Active 124 / 131 40% 1 15.02.2028 -
Tobías Andrada Virtus Entella Active 125 / 123 40% 2 12.02.2028 -
Josh Nichols Tranmere Rovers Active 120 / 135 40% 3 12.02.2028 -
Dmitry Pestryakov Dinamo Moscow Active 119 / 111 40% 2 11.02.2028 -
Thiago Helguera Braga Active 128 / 137 40% 1 11.02.2028 -
Émile Fontaine Chamois Niortais Active 119 / 126 40% 1 11.02.2028 -
Enzo Koffi Le Havre AC Active 111 / 124 40% 1 09.02.2028 -
Gopolang Taunyane CR Belouizdad Active 101 / 103 40% 1 09.02.2028 -
Jan Bürger Gillingham Active 115 / 124 40% 5 08.02.2028 -
Luis Otávio Colorado Rapids Active 107 / 111 40% 6 08.02.2028 -
Lucas Camejo River Plate Active 92 / 79 40% 3 08.02.2028 -
Keagan Phiri Platinum Stars Active 100 / 112 40% 2 07.02.2028 -
Andrija Bulatović RC Lens Active 128 / 135 40% 1 07.02.2028 -
Diego Collado Cultural Leonesa Lost 117 / 112 76% 1 31.01.2028 -
Noahkai Banks Hamburger SV Active 138 / 146 40% 1 31.01.2028 -
Eduardo Felicíssimo Sporting CP Active 123 / 127 40% 1 31.01.2028 -
Jorge Salinas Racing Santander Active 134 / 135 40% 1 11.01.2028 -
Mao Hosoya Everton Negotiating 134 / 135 67% 1 01.01.2028 -
Santiago Hezze Chaves Report Ready 132 / 133 62% 1 01.01.2028 -
Nicolò Tresoldi Club Brugge Negotiating 129 / 133 67% 1 01.01.2028 -
Izan Merino Málaga Active 125 / 132 40% 7 31.12.2027 -
Caleb Yirenkyi Coventry City Active 135 / 140 40% 12 31.12.2027 -
Marvelous Freedom Ikorodu City Active 93 / 91 40% 2 31.12.2027 -
Ignacio Fernández Boston River Active 98 / 96 40% 4 15.12.2027 -
Joel Ezra Enyimba Active 95 / 94 40% 5 15.12.2027 -
Martín Jiménez Audax Italiano Active 96 / 97 40% 2 12.12.2027 -
Alejandro Almaraz Nueva Chicago Active 116 / 115 40% 1 12.12.2027 -
David Valencia Alianza Petrolera Active 131 / 143 40% 3 11.12.2027 -
Juan Morán Godoy Cruz Active 110 / 130 40% 2 11.12.2027 -
Celías Ingenthron Vélez Active 112 / 109 40% 3 09.12.2027 -
Mikkel Hope Haugesund Active 107 / 117 40% 2 09.12.2027 -
David Damboama El-Kanemi Warriors Active 85 / 109 40% 2 08.12.2027 -
Hervin Goyes Deportivo Pasto Active 110 / 94 40% 2 08.12.2027 -
Bautista Reinhardt Hrvatski Dragovoljac Active 86 / 94 40% 1 08.12.2027 -
Samuel Posada Leones Active 96 / 93 40% 2 07.12.2027 -
Ricky Atletico Venezuela Active 106 / 119 40% 5 07.12.2027 -
Olaniyi Saheed Kwara United Active 88 / 107 40% 3 06.12.2027 -
Tiago Gordillo San Miguel Active 90 / 77 40% 1 06.12.2027 -
Ulises Giménez River Plate Active 104 / 133 40% 1 24.11.2027 -
Agustín Obregón River Plate Active 123 / 114 40% 2 22.11.2027 -
Jhon Cortez Barranquilla Active 83 / 106 40% 1 22.11.2027 -
Felipe Obradovich Ferro Carril Oeste Active 99 / 102 40% 2 19.11.2027 -
Mads Bomholt Stabaek Active 115 / 112 40% 1 19.11.2027 -
Hosea Michael Remo Stars Active 84 / 80 40% 1 19.11.2027 -
Christos Mouzakitis Hull City Active 142 / 144 40% 9 11.11.2027 -
Julián Bazán Philadelphia Union Active 118 / 127 40% 1 11.11.2027 -
Sebastián Ramírez Jaguares Active 109 / 110 40% 2 10.11.2027 -
Cristian Guzmán Universitario Popayan Active 85 / 106 40% 3 09.11.2027 -
Mauro Carrizo Atlético Tucumán Active 92 / 92 40% 1 09.11.2027 -
Daniel Gomez Valledupar Active 85 / 82 40% 1 09.11.2027 -
Bahia Criciuma Active 116 / 128 40% 1 07.11.2027 -
Ángel Aguayo Sol de America Active 102 / 105 40% 1 05.11.2027 -
Gift Udoh Ikorodu City Active 86 / 106 40% 1 05.11.2027 -
Juan Camilo Córdoba Deportivo Pereira Active 75 / 104 40% 1 03.11.2027 -
Ronan Kpakio Cardiff City Active 120 / 131 40% 1 03.11.2027 -
Esteban de Lima Tacuarembo Active 91 / 87 40% 1 11.10.2027 -
Issa Yusuf Shooting Stars Active 86 / 92 40% 1 07.10.2027 -
Juan Diego Perdomo Depor Active 94 / 76 40% 1 04.10.2027 -
Samuel Martín Millonarios Active 116 / 128 40% 1 04.10.2027 -
Marcus Forss Girona Active 114 / 109 72% 1 19.07.2027 Approve
Leo Castledine Middlesbrough Active 136 / 144 40% 1 12.07.2027 -
Gianluca Prestianni Benfica Active 137 / 135 40% 1 12.07.2027 -
Yusi Alavés Active 137 / 145 40% 10 28.06.2027 -
Lander Astiazarán Real Sociedad Active 100 / 103 67% 2 28.06.2027 Monitor
Shea Lacey Wolverhampton Active 124 / 128 40% 1 28.06.2027 -
Dion Beljo Standard Liege Lost 131 / 132 66% 1 01.06.2027 -
Pablo Solari Galatasaray Lost 128 / 128 68% 1 01.06.2027 -
Davide Bartesaghi AC Milan Active 133 / 140 40% 6 31.05.2027 -
Jon Garro Real Sociedad Active 84 / 101 40% 3 30.05.2027 -
Adam Bakoune Ospitaletto Active 94 / 96 40% 1 29.05.2027 -
Leandro Martins Benfica Active 93 / 88 40% 2 27.05.2027 -
Josh King Chelsea Active 144 / 138 40% 6 24.05.2027 -
Lucas Høgsberg RC Strasbourg Active 139 / 136 40% 8 24.05.2027 -
Percy Jali Free State Stars Active 101 / 89 40% 3 24.05.2027 -
José Pachuca Puebla Active 103 / 129 40% 6 21.05.2027 -
Samuel Lucero Defensa y Justicia Active 117 / 132 40% 3 20.05.2027 -
Sascha Britschgi Padova Active 120 / 128 40% 1 18.05.2027 -
Dylan Lawlor Cardiff City Active 118 / 126 40% 4 17.05.2027 -
Nazareno Kihm Ferro Carril Oeste Active 118 / 134 40% 2 16.05.2027 -
Toni Tamarit Alverca Active 109 / 133 40% 2 14.05.2027 -
Matías Gómez Granada Active 107 / 117 40% 2 12.05.2027 -
Kevin Vazquez Cruz Azul Active 130 / 137 40% 13 10.05.2027 -
Kazunari Kita Real Sociedad Active 93 / 94 40% 2 03.05.2027 -
Johan Manzambi Newcastle United Active 136 / 142 40% 1 03.05.2027 -
Christ Inao Oulaï Fiorentina Active 134 / 133 40% 5 01.05.2027 -
Darryl Bakola Padova Active 112 / 108 40% 1 01.05.2027 -
Zane Albarus Cambridge United Active 92 / 111 40% 2 30.04.2027 -
Daniel Vernattus Metalist Active 83 / 82 40% 1 30.04.2027 -
Riley Owen Trento Active 101 / 118 40% 1 29.04.2027 -
Pietro Reggiori Pro Patria Active 95 / 95 40% 1 28.04.2027 -
Matvey Kislyak CSKA Moscow Active 130 / 146 40% 2 19.04.2027 -
Lucas Agazzi Defensor Sporting Active 123 / 123 40% 2 18.04.2027 -
David Ozoh Derby County Active 122 / 135 40% 2 18.04.2027 -
Martim Cunha Porto Active 101 / 110 40% 2 17.04.2027 -
Taras Mykhavko Dynamo Kyiv Active 131 / 144 40% 1 16.04.2027 -
Keagan Tau Ajax Cape Town Active 99 / 95 40% 3 15.04.2027 -
Juan Giménez Celta Active 119 / 126 40% 1 12.04.2027 -
Ernie Weaver AFC Wimbledon Active 110 / 110 40% 1 11.04.2027 -
Mpho Khethang AS Police Active 75 / 85 40% 1 06.04.2027 -
Pape Diong Westerlo Active 105 / 116 40% 1 31.03.2027 -
Zaïd BafdilI Sporting CP Active 84 / 92 40% 1 28.03.2027 -
Tiago Freitas Benfica Active 115 / 114 40% 2 18.03.2027 -
Joaquin Seys Club Brugge Active 132 / 124 40% 1 18.03.2027 -
Cemran Dansin Orlando Pirates Active 116 / 111 40% 2 17.03.2027 -
Joel McGregor Swindon Town Active 87 / 110 40% 1 16.03.2027 -
James Dornelly Peterborough United Active 106 / 101 40% 1 11.03.2027 -
Hlompho Lorch Ajax Cape Town Active 94 / 112 40% 1 11.03.2027 -
Gonçalo Oliveira Benfica Active 101 / 125 40% 1 09.03.2027 -
Ronwen Phiri Platinum Stars Active 103 / 94 40% 1 09.03.2027 -
Noah Nartey Olympique Lyonnais Active 131 / 129 40% 1 08.03.2027 -
Ethan Williams Peterborough United Active 110 / 115 40% 1 31.12.2026 -
Kyriani Sabbe Club Brugge Active 114 / 138 40% 1 30.12.2026 -
Malick Fofana Sunderland Active 144 / 154 40% 2 29.12.2026 -
Endrick Real Madrid Active 140 / 146 40% 1 29.12.2026 -
Jesús Rodríguez Como Active 136 / 154 40% 2 28.12.2026 -
Robert FC Copenhagen Active 134 / 113 40% 3 20.12.2026 -
Kevin Álvarez Patriotas Active 104 / 98 40% 1 20.12.2026 -
William Gomes Porto Active 140 / 156 40% 1 15.12.2026 -
Patrick Preciado Deportivo Pasto Active 103 / 120 40% 2 13.12.2026 -
David Mella Deportivo La Coruña Active 133 / 128 40% 1 13.12.2026 -
Tristan Degreef Anderlecht Active 121 / 120 40% 2 10.12.2026 -
Othmane Maamma Watford Active 119 / 126 40% 1 07.12.2026 -
Giovanni Cantizano Rosario Central Active 119 / 133 40% 2 23.11.2026 -
Caylan Vickers Burton Albion Active 113 / 112 40% 1 22.11.2026 -
Valentino Acuña Newell's Old Boys Active 107 / 108 40% 1 19.11.2026 -
Ian Garguez Palestino Active 111 / 128 40% 1 15.11.2026 -
Lautaro Vargas Leganés Active 117 / 137 40% 1 11.11.2026 -
Tobías Correa Gamba Osaka Active 95 / 97 40% 1 11.11.2026 -
Arjan Malić Sturm Graz Active 115 / 129 40% 1 09.11.2026 -
Javier Mena Portimonense Active 117 / 128 40% 1 08.11.2026 -
El Hadji Malick Diouf Brentford Active 141 / 133 40% 3 06.11.2026 -
Axel Frugone Defensor Sporting Active 113 / 131 40% 1 05.10.2026 -
Simón Pinto Palestino Active 100 / 95 40% 1 05.10.2026 -
Bianneider Tamayo Universidad de Chile Active 114 / 99 40% 1 11.09.2026 -
Mateo Mendoza Godoy Cruz Active 120 / 128 40% 1 10.09.2026 -
Felipe Faúndez O'Higgins Active 94 / 124 40% 1 08.09.2026 -
Octavio Ontivero Lanús Active 108 / 119 40% 1 25.08.2026 -
Jack Hinshelwood Brighton Active 144 / 138 40% 1 25.08.2026 -
Alan Forneris Racing Club Active 120 / 102 40% 1 25.08.2026 -
Mickaël Malsa Mirandés Active 112 / 124 72% 1 10.08.2026 Approve
Jorrel Hato Chelsea Active 143 / 144 40% 1 10.08.2026 -
Keimer Sandoval Deportivo Cali Active 90 / 86 40% 1 10.08.2026 -
Mateo Raschia Unión de Santa Fe Active 97 / 77 40% 1 03.08.2026 -